Time;durP1;ratioP1;P1;durP2;ratioP2;P2;SDS_P1;SDS_P2;PMS_P1;PMS_P2;Temp;Humidity;BMP_temperature;BMP_pressure;BME280_temperature;BME280_humidity;BME280_pressure;Samples;Min_cycle;Max_cycle;Signal;HPM_P1;HPM_P2
2022/05/15 00:02:03;;;;;;;7.78;3.10;;;;;;;9.85;72.22;100852.73;3694048;77;98781;-83
2022/05/15 00:07:06;;;;;;;12.60;3.17;;;;;;;9.77;72.46;100855.90;3741837;77;26260;-83
2022/05/15 00:12:08;;;;;;;9.38;3.80;;;;;;;9.67;73.52;100852.94;3750953;77;98673;-83
2022/05/15 00:17:10;;;;;;;10.65;2.92;;;;;;;9.59;72.82;100857.48;3750158;77;98304;-83
2022/05/15 00:22:11;;;;;;;14.37;4.27;;;;;;;9.53;72.99;100863.61;3737200;77;98927;-83
2022/05/15 00:27:12;;;;;;;8.77;2.90;;;;;;;9.46;73.97;100873.89;3723679;78;98583;-83
2022/05/15 00:32:13;;;;;;;9.90;3.07;;;;;;;9.40;73.94;100869.83;3720609;78;98732;-83
2022/05/15 00:37:14;;;;;;;8.80;2.70;;;;;;;9.32;74.20;100870.81;3746590;78;26164;-83
2022/05/15 00:42:15;;;;;;;8.77;3.77;;;;;;;9.25;74.26;100880.27;3715924;78;98220;-83
2022/05/15 00:47:15;;;;;;;13.20;2.93;;;;;;;9.19;74.26;100871.27;3747072;78;98285;-82
2022/05/15 00:52:22;;;;;;;8.10;2.57;;;;;;;9.11;74.55;100878.55;3741289;77;98964;-82
2022/05/15 00:57:28;;;;;;;8.75;2.90;;;;;;;9.03;74.56;100872.68;3745347;78;98438;-83
2022/05/15 01:02:35;;;;;;;10.23;2.40;;;;;;;8.95;75.25;100876.38;3761407;77;98406;-82
2022/05/15 01:07:36;;;;;;;;;;;;;;;8.86;75.40;100884.02;3773010;77;25913;-81
2022/05/15 01:12:40;;;;;;;8.20;2.40;;;;;;;8.78;76.83;100871.25;3762490;77;84458;-83
2022/05/15 01:17:41;;;;;;;10.25;2.55;;;;;;;8.70;75.76;100872.24;3735044;78;98251;-83
2022/05/15 01:22:42;;;;;;;9.03;2.63;;;;;;;8.63;75.82;100877.55;3748069;78;98802;-83
2022/05/15 01:27:53;;;;;;;10.03;2.63;;;;;;;8.54;76.49;100877.48;3770104;78;98395;-83
2022/05/15 01:32:55;;;;;;;6.67;2.20;;;;;;;8.48;76.29;100878.33;3758171;78;98735;-83
2022/05/15 01:37:57;;;;;;;8.73;2.83;;;;;;;8.46;76.89;100876.49;3746478;77;98453;-83
2022/05/15 01:42:59;;;;;;;9.10;2.77;;;;;;;8.43;76.48;100883.27;3748158;78;98567;-83
2022/05/15 01:48:00;;;;;;;7.83;2.33;;;;;;;8.39;76.55;100879.65;3752030;78;97550;-82
2022/05/15 01:53:01;;;;;;;6.83;2.17;;;;;;;8.36;76.66;100879.77;3760147;76;98493;-82
2022/05/15 01:58:03;;;;;;;7.97;2.10;;;;;;;8.31;76.98;100879.22;3762994;76;98501;-83
2022/05/15 02:03:04;;;;;;;8.53;2.17;;;;;;;8.29;76.97;100874.08;3749372;76;98475;-82
2022/05/15 02:08:06;;;;;;;8.40;3.03;;;;;;;8.26;77.36;100881.65;3741191;78;98502;-82
2022/05/15 02:13:07;;;;;;;9.53;2.27;;;;;;;8.22;77.24;100887.60;3762596;77;98711;-82
2022/05/15 02:18:08;;;;;;;10.23;2.60;;;;;;;8.17;77.84;100882.34;3809783;76;98228;-82
2022/05/15 02:23:09;;;;;;;14.40;2.93;;;;;;;8.14;78.54;100887.72;3791095;76;98507;-82
2022/05/15 02:28:10;;;;;;;7.50;2.57;;;;;;;8.04;78.30;100887.66;3784377;76;98786;-82
2022/05/15 02:33:11;;;;;;;6.37;2.17;;;;;;;7.97;78.37;100898.98;3735130;76;98739;-82
2022/05/15 02:38:12;;;;;;;9.63;2.50;;;;;;;7.89;78.07;100892.50;3766116;78;98558;-82
2022/05/15 02:43:13;;;;;;;7.60;2.30;;;;;;;7.83;78.21;100902.67;3729525;78;98453;-81
2022/05/15 02:53:37;;;;;;;11.10;2.33;;;;;;;7.69;78.08;100907.16;3746549;77;98492;-83
2022/05/15 02:58:39;;;;;;;6.05;2.05;;;;;;;7.61;78.08;100911.41;3775007;78;98932;-82
2022/05/15 03:03:40;;;;;;;10.03;2.50;;;;;;;7.53;78.09;100915.86;3728664;77;98528;-82
2022/05/15 03:08:45;;;;;;;7.47;2.20;;;;;;;7.46;77.93;100912.91;3757374;77;98633;-82
2022/05/15 03:13:47;;;;;;;8.63;3.10;;;;;;;7.34;78.86;100930.73;3671539;79;98604;-82
2022/05/15 03:18:50;;;;;;;7.78;2.62;;;;;;;7.27;78.92;100926.41;3719593;79;35358;-83
2022/05/15 03:23:51;;;;;;;8.10;2.67;;;;;;;7.21;78.91;100926.97;3722793;77;98446;-82
2022/05/15 03:28:53;;;;;;;7.63;2.53;;;;;;;7.14;79.27;100929.48;3739281;78;98389;-82
2022/05/15 03:33:54;;;;;;;6.97;2.50;;;;;;;7.09;79.40;100947.50;3722385;78;98878;-82
2022/05/15 03:38:55;;;;;;;9.60;2.42;;;;;;;7.06;79.82;100946.23;3691830;79;98511;-83
2022/05/15 03:43:56;;;;;;;12.00;3.47;;;;;;;7.01;79.93;100952.48;3703949;77;98519;-85
2022/05/15 03:48:58;;;;;;;12.30;3.30;;;;;;;6.99;80.07;100957.52;3730081;79;25792;-82
2022/05/15 03:54:00;;;;;;;8.83;3.07;;;;;;;6.97;80.95;100961.14;3702460;79;98609;-82
2022/05/15 03:59:01;;;;;;;12.10;3.60;;;;;;;6.98;81.28;100966.87;3750589;77;98371;-82
2022/05/15 04:04:03;;;;;;;13.70;3.20;;;;;;;7.00;82.50;100968.69;3780133;77;99013;-81
2022/05/15 04:09:04;;;;;;;17.30;4.80;;;;;;;7.05;82.53;100973.94;3768909;77;99201;-82
2022/05/15 04:14:06;;;;;;;13.00;4.28;;;;;;;7.11;84.14;100970.65;3783527;77;98572;-82
2022/05/15 04:19:08;;;;;;;12.68;4.33;;;;;;;7.24;85.65;100981.83;3783708;77;34805;-83
2022/05/15 04:24:14;;;;;;;13.78;4.53;;;;;;;7.35;86.50;100989.01;3736455;78;98645;-81
2022/05/15 04:29:16;;;;;;;12.60;4.50;;;;;;;7.48;86.70;100990.63;3660613;79;98962;-82
2022/05/15 04:34:17;;;;;;;15.93;5.45;;;;;;;7.65;88.33;100970.66;3710560;78;98679;-82
2022/05/15 04:39:19;;;;;;;16.03;6.60;;;;;;;7.65;88.33;100970.66;3782712;76;98649;-82
2022/05/15 04:44:19;;;;;;;11.97;4.57;;;;;;;7.92;87.94;100997.89;3741888;76;98741;-82
2022/05/15 04:49:21;;;;;;;11.13;4.30;;;;;;;8.09;88.32;101001.73;3793553;76;28582;-82
2022/05/15 04:54:22;;;;;;;13.70;5.50;;;;;;;8.23;87.64;101006.31;3791944;76;98556;-82
2022/05/15 04:59:24;;;;;;;9.80;3.57;;;;;;;8.35;87.41;101013.13;3785392;76;98496;-82
2022/05/15 05:04:25;;;;;;;12.20;3.77;;;;;;;8.50;87.61;101007.69;3769764;77;98523;-82
2022/05/15 05:09:26;;;;;;;9.70;4.00;;;;;;;8.67;87.71;101016.21;3787067;76;98674;-82
2022/05/15 05:14:27;;;;;;;12.57;4.30;;;;;;;8.81;87.15;101020.70;3768106;77;98436;-82
2022/05/15 05:19:28;;;;;;;11.73;3.93;;;;;;;9.03;87.51;101021.50;3753904;77;27280;-81
2022/05/15 05:24:29;;;;;;;13.87;3.83;;;;;;;9.32;87.99;101029.34;3766467;76;98484;-82
2022/05/15 05:29:30;;;;;;;12.63;3.63;;;;;;;9.75;87.95;101031.99;3763757;77;98552;-82
2022/05/15 05:34:31;;;;;;;15.50;3.70;;;;;;;10.34;87.78;101033.37;3736755;77;98728;-82
2022/05/15 05:39:32;;;;;;;13.13;4.10;;;;;;;11.12;87.44;101044.00;3748869;78;98972;-82
2022/05/15 05:44:33;;;;;;;8.83;3.37;;;;;;;11.86;84.63;101040.56;3748853;77;99015;-81
2022/05/15 05:49:34;;;;;;;10.97;2.80;;;;;;;12.60;82.84;101043.80;3751191;77;33068;-82
2022/05/15 05:54:35;;;;;;;11.27;3.23;;;;;;;13.46;81.74;101048.72;3759316;77;99070;-82
2022/05/15 05:59:36;;;;;;;8.65;2.52;;;;;;;14.44;80.26;101045.31;3758465;77;98931;-83
2022/05/15 06:04:41;;;;;;;12.78;2.98;;;;;;;15.35;77.48;101051.78;3711135;78;98887;-82
2022/05/15 06:09:45;;;;;;;10.55;3.00;;;;;;;16.06;73.92;101060.33;3716484;79;99068;-81
2022/05/15 06:14:47;;;;;;;13.13;3.72;;;;;;;16.67;72.57;101055.05;3723786;78;99022;-83
2022/05/15 06:19:48;;;;;;;10.60;3.40;;;;;;;17.27;71.22;101058.33;3742770;77;99031;-82
2022/05/15 06:24:49;;;;;;;9.33;2.33;;;;;;;17.90;69.15;101053.73;3716881;77;99034;-82
2022/05/15 06:29:51;;;;;;;6.90;1.85;;;;;;;18.44;66.34;101054.22;3735751;78;98660;-82
2022/05/15 06:34:53;;;;;;;7.53;1.90;;;;;;;18.74;64.33;101052.08;3725523;78;98879;-82
2022/05/15 06:39:57;;;;;;;7.15;2.10;;;;;;;19.02;62.94;101062.88;3741815;78;98744;-82
2022/05/15 06:44:58;;;;;;;5.30;2.02;;;;;;;19.23;61.05;101060.59;3750586;77;98821;-82
2022/05/15 06:50:05;;;;;;;7.83;2.40;;;;;;;19.58;59.97;101055.91;3740308;77;98735;-82
2022/05/15 06:55:12;;;;;;;5.67;1.47;;;;;;;19.97;58.52;101055.25;3746719;77;98613;-82
2022/05/15 07:00:18;;;;;;;3.98;1.30;;;;;;;20.14;56.40;101058.36;3738618;77;98756;-82
2022/05/15 07:05:23;;;;;;;9.08;1.40;;;;;;;20.20;55.65;101063.64;3720845;77;98778;-82
2022/05/15 07:10:25;;;;;;;5.87;1.55;;;;;;;20.19;54.45;101065.67;3728297;79;98855;-82
2022/05/15 07:15:27;;;;;;;5.33;1.20;;;;;;;19.88;52.62;101064.77;3723543;77;98757;-81
2022/05/15 07:20:28;;;;;;;3.33;0.80;;;;;;;19.66;52.11;101061.55;3714515;77;98767;-82
2022/05/15 07:25:29;;;;;;;4.85;1.40;;;;;;;19.38;51.95;101067.56;3702636;78;98450;-82
2022/05/15 07:30:30;;;;;;;6.03;0.93;;;;;;;19.40;52.75;101067.15;3734568;78;98684;-81
2022/05/15 07:35:31;;;;;;;4.05;1.02;;;;;;;19.31;51.36;101076.64;3731423;78;98919;-81
2022/05/15 07:40:33;;;;;;;6.20;1.10;;;;;;;19.29;51.73;101073.49;3737615;78;98927;-81
2022/05/15 07:45:34;;;;;;;4.25;0.98;;;;;;;19.13;48.82;101069.10;3687144;78;98709;-82
2022/05/15 07:50:38;;;;;;;2.95;0.80;;;;;;;18.89;49.77;101080.77;3733548;78;98932;-82
2022/05/15 07:55:39;;;;;;;8.20;1.10;;;;;;;18.88;48.91;101070.02;3735432;78;26449;-81
2022/05/15 08:00:40;;;;;;;3.85;0.90;;;;;;;18.69;49.25;101077.02;3745503;76;99019;-80
2022/05/15 08:11:01;;;;;;;5.60;1.15;;;;;;;19.12;49.74;101079.45;3806699;76;98800;-80
2022/05/15 08:16:03;;;;;;;6.12;1.10;;;;;;;19.47;49.39;101087.98;3791298;76;99269;-80
2022/05/15 08:26:28;;;;;;;4.05;1.40;;;;;;;20.95;49.51;101068.19;3816829;76;99192;-79
2022/05/15 08:31:30;;;;;;;4.40;1.72;;;;;;;21.65;47.56;101084.00;3814211;76;98653;-79
2022/05/15 08:36:31;;;;;;;6.85;1.30;;;;;;;22.37;46.68;101082.59;3826323;76;98653;-81
2022/05/15 08:41:41;;;;;;;6.08;1.50;;;;;;;23.36;45.72;101089.80;3805621;76;98667;-84
2022/05/15 08:47:16;;;;;;;6.75;1.20;;;;;;;24.19;45.03;101070.81;3814393;76;99165;-81
2022/05/15 08:52:41;;;;;;;7.10;1.77;;;;;;;24.84;43.71;101072.34;3800400;76;99079;-81
2022/05/15 08:58:07;;;;;;;6.50;0.88;;;;;;;25.71;41.54;101073.12;3763883;76;98757;-81
2022/05/15 09:03:18;;;;;;;6.65;1.10;;;;;;;26.52;40.89;101075.33;3749142;76;98789;-81
2022/05/15 09:08:41;;;;;;;3.37;1.15;;;;;;;27.39;39.93;101077.59;3757937;77;98788;-82
2022/05/15 09:13:50;;;;;;;3.37;1.20;;;;;;;27.56;38.65;101069.68;3754890;77;99045;-84
2022/05/15 09:18:52;;;;;;;3.52;1.40;;;;;;;28.38;37.93;101078.55;3722604;78;26832;-83
2022/05/15 09:23:57;;;;;;;3.25;1.45;;;;;;;28.88;37.93;101081.08;3708466;78;98649;-81
2022/05/15 09:29:01;;;;;;;6.95;1.60;;;;;;;29.35;35.68;101075.88;3677455;78;98970;-83
2022/05/15 09:34:06;;;;;;;;;;;;;;;29.14;34.76;101086.98;3712285;77;98856;-82
2022/05/15 09:39:34;;;;;;;6.53;1.40;;;;;;;29.47;32.31;101071.31;3715251;78;84229;-82
2022/05/15 09:44:36;;;;;;;4.75;0.93;;;;;;;29.57;34.33;101074.23;3716947;77;99198;-82
2022/05/15 09:49:38;;;;;;;4.50;1.10;;;;;;;29.85;33.41;101071.81;3734246;77;27384;-81
2022/05/15 09:54:43;;;;;;;3.75;1.30;;;;;;;30.27;32.34;101069.31;3718400;78;98778;-82
2022/05/15 10:00:03;;;;;;;5.80;1.27;;;;;;;30.30;33.33;101063.41;3725774;78;98579;-82
2022/05/15 10:05:28;;;;;;;4.12;1.20;;;;;;;30.69;31.91;101073.23;3773355;76;98802;-82
2022/05/15 10:10:41;;;;;;;7.70;1.40;;;;;;;30.64;31.47;101075.97;3780741;76;98848;-84
2022/05/15 10:15:49;;;;;;;5.35;1.22;;;;;;;30.57;30.75;101064.38;3760419;77;98816;-81
2022/05/15 10:20:52;;;;;;;3.93;0.80;;;;;;;29.83;31.67;101059.53;3763948;77;98949;-81
2022/05/15 10:26:08;;;;;;;3.65;1.22;;;;;;;28.89;30.83;101069.88;3767249;78;98758;-81
2022/05/15 10:31:14;;;;;;;1.98;0.78;;;;;;;29.53;31.82;101045.23;3782672;76;99062;-82
2022/05/15 10:36:39;;;;;;;4.87;0.78;;;;;;;30.16;30.50;101045.83;3781782;78;98573;-82
2022/05/15 10:41:55;;;;;;;5.70;0.95;;;;;;;30.55;30.26;101036.33;3768149;77;98675;-81
2022/05/15 10:47:04;;;;;;;4.55;1.32;;;;;;;30.92;29.16;101037.27;3797475;77;98772;-82
2022/05/15 10:52:27;;;;;;;4.37;1.07;;;;;;;31.33;28.91;101028.09;3767714;77;98712;-82
2022/05/15 10:58:04;;;;;;;2.70;0.83;;;;;;;30.96;28.48;101030.73;3771341;77;98756;-82
2022/05/15 11:03:14;;;;;;;3.20;0.90;;;;;;;31.07;28.64;101033.67;3716855;78;99327;-82
2022/05/15 11:08:41;;;;;;;1.80;0.65;;;;;;;31.43;28.48;101019.51;3684268;78;98801;-82
2022/05/15 11:14:02;;;;;;;4.08;0.93;;;;;;;31.68;27.95;101017.23;3670033;78;98750;-82
2022/05/15 11:19:39;;;;;;;2.90;0.90;;;;;;;31.72;27.62;101014.14;3687283;78;29504;-82
2022/05/15 11:25:07;;;;;;;2.05;0.80;;;;;;;31.35;27.11;101001.36;3706196;78;98709;-84
2022/05/15 11:30:16;;;;;;;4.12;1.00;;;;;;;31.41;26.33;100999.95;3707807;78;97807;-81
2022/05/15 11:35:23;;;;;;;6.75;1.20;;;;;;;30.81;27.13;100990.26;3703418;78;98826;-82
2022/05/15 11:40:41;;;;;;;3.37;0.93;;;;;;;30.61;28.01;100993.13;3712587;78;98888;-81
2022/05/15 11:45:51;;;;;;;6.80;1.20;;;;;;;30.97;27.28;100984.73;3721511;78;98782;-81
2022/05/15 11:51:00;;;;;;;2.20;0.80;;;;;;;30.56;27.10;100981.09;3740661;78;99229;-82
2022/05/15 11:56:34;;;;;;;3.00;0.95;;;;;;;30.61;26.82;100966.92;3756689;78;27405;-81
2022/05/15 12:01:41;;;;;;;2.87;1.00;;;;;;;30.80;27.29;100963.92;3747322;78;98843;-82
2022/05/15 12:06:59;;;;;;;2.47;0.78;;;;;;;30.75;27.11;100970.33;3753719;77;99013;-82
2022/05/15 12:12:27;;;;;;;2.65;0.80;;;;;;;31.05;27.56;100953.13;3723093;77;99021;-82
2022/05/15 12:17:35;;;;;;;3.12;1.05;;;;;;;31.07;27.08;100956.27;3695083;78;99188;-82
2022/05/15 12:22:47;;;;;;;4.87;1.17;;;;;;;30.91;27.01;100951.22;3659428;77;98667;-82
2022/05/15 12:33:40;;;;;;;3.40;1.00;;;;;;;30.75;27.78;100941.11;3711083;78;99215;-83
2022/05/15 12:38:53;;;;;;;2.15;0.90;;;;;;;30.16;26.58;100952.12;3730883;78;99164;-81
2022/05/15 12:43:54;;;;;;;3.55;0.95;;;;;;;29.96;26.98;100931.47;3716175;78;98828;-82
2022/05/15 12:48:56;;;;;;;2.45;0.80;;;;;;;30.15;28.29;100924.22;3725993;78;99059;-80
2022/05/15 12:54:00;;;;;;;2.80;0.68;;;;;;;30.10;27.24;100926.32;3711584;78;99116;-82
2022/05/15 12:59:18;;;;;;;7.17;1.77;;;;;;;29.76;26.45;100917.27;3722920;78;98874;-83
2022/05/15 13:04:24;;;;;;;4.15;1.10;;;;;;;29.62;27.79;100913.23;3723645;77;99225;-82
2022/05/15 13:09:30;;;;;;;4.55;1.20;;;;;;;29.53;27.10;100909.73;3747709;77;98899;-83
2022/05/15 13:14:39;;;;;;;3.70;1.07;;;;;;;29.30;29.13;100909.25;3778552;77;98286;-84
2022/05/15 13:19:52;;;;;;;3.02;1.22;;;;;;;29.55;29.08;100905.78;3742726;78;98821;-82
2022/05/15 13:25:01;;;;;;;5.30;1.10;;;;;;;29.23;27.53;100905.42;3774031;77;98773;-84
2022/05/15 13:30:04;;;;;;;6.00;1.32;;;;;;;29.00;28.12;100902.13;3800714;76;97868;-83
2022/05/15 13:35:09;;;;;;;4.70;1.30;;;;;;;28.79;27.42;100891.96;3789034;77;99127;-84
2022/05/15 13:45:54;;;;;;;3.40;1.02;;;;;;;28.34;30.02;100888.97;3804559;77;100017;-86
2022/05/15 13:51:00;;;;;;;5.03;1.30;;;;;;;27.82;27.44;100878.47;3790830;76;98893;-85
2022/05/15 13:56:10;;;;;;;4.05;1.00;;;;;;;27.48;28.89;100884.68;3755015;78;28264;-84
2022/05/15 14:01:22;;;;;;;4.35;1.42;;;;;;;27.51;30.09;100891.42;3771814;76;98901;-83
2022/05/15 14:06:32;;;;;;;3.52;1.20;;;;;;;27.32;30.03;100880.86;3787361;77;99014;-82
2022/05/15 14:11:59;;;;;;;8.40;2.33;;;;;;;27.09;30.77;100876.56;3754784;77;98847;-82
2022/05/15 14:17:05;;;;;;;4.55;1.60;;;;;;;27.41;32.57;100880.02;3780419;77;99118;-84
2022/05/15 14:22:06;;;;;;;3.22;1.40;;;;;;;27.07;30.05;100881.27;3794570;76;99456;-83
2022/05/15 14:27:08;;;;;;;5.40;1.30;;;;;;;26.86;29.54;100873.84;3833396;76;98818;-81
2022/05/15 14:32:13;;;;;;;3.40;1.22;;;;;;;26.54;30.53;100878.03;3837130;76;98616;-81
2022/05/15 14:37:14;;;;;;;;;;;;;;;26.28;31.00;100870.57;3830157;76;98979;-81
2022/05/15 14:42:16;;;;;;;9.35;4.08;;;;;;;26.28;31.11;100866.34;3820342;76;85084;-82
2022/05/15 14:47:20;;;;;;;13.98;10.15;;;;;;;26.10;32.51;100869.81;3811718;76;98835;-81
2022/05/15 14:52:26;;;;;;;6.92;2.37;;;;;;;25.90;32.07;100867.45;3812178;76;99214;-81
2022/05/15 14:57:28;;;;;;;5.55;1.40;;;;;;;25.77;33.27;100863.23;3819181;76;98736;-82
2022/05/15 15:02:30;;;;;;;1001.45;695.83;;;;;;;25.53;32.27;100867.91;3835174;75;98657;-84
2022/05/15 15:07:31;;;;;;;126.45;111.28;;;;;;;25.49;33.13;100863.03;3764970;76;99398;-83
2022/05/15 15:12:33;;;;;;;12.25;7.35;;;;;;;25.42;32.86;100865.55;3732741;76;99466;-83
2022/05/15 15:17:35;;;;;;;26.40;17.42;;;;;;;25.47;32.89;100869.78;3748352;78;99003;-84
2022/05/15 15:22:36;;;;;;;7.47;2.60;;;;;;;25.35;32.68;100855.20;3718910;77;99279;-86
2022/05/15 15:27:36;;;;;;;20.60;11.43;;;;;;;25.20;32.58;100854.20;3753046;78;99147;-85
2022/05/15 15:32:37;;;;;;;32.53;22.05;;;;;;;25.27;33.20;100859.56;3733045;78;98849;-86
2022/05/15 15:42:58;;;;;;;9.43;3.67;;;;;;;25.55;32.66;100847.09;3745639;78;98826;-83
2022/05/15 15:47:59;;;;;;;14.20;7.50;;;;;;;25.33;32.60;100853.49;3744827;78;99074;-82
2022/05/15 15:53:00;;;;;;;16.02;10.30;;;;;;;25.28;33.29;100853.47;3736614;77;98987;-84
2022/05/15 15:58:02;;;;;;;7.90;2.85;;;;;;;25.10;33.50;100851.20;3723337;78;99191;-83
2022/05/15 16:03:05;;;;;;;8.40;2.77;;;;;;;24.95;33.28;100843.97;3746606;76;98889;-84
2022/05/15 16:08:07;;;;;;;6.37;2.52;;;;;;;24.59;33.35;100841.65;3817043;76;28294;-82
2022/05/15 16:13:10;;;;;;;6.12;2.27;;;;;;;24.23;34.03;100840.02;3774936;76;98907;-84
2022/05/15 16:18:14;;;;;;;7.22;2.50;;;;;;;23.96;34.19;100842.65;3772388;77;98684;-83
2022/05/15 16:23:18;;;;;;;6.90;2.40;;;;;;;23.77;34.28;100840.29;3751419;76;98835;-84
2022/05/15 16:28:22;;;;;;;7.15;2.02;;;;;;;23.50;34.70;100837.28;3791556;77;98817;-81
2022/05/15 16:33:23;;;;;;;3.65;1.50;;;;;;;23.27;34.57;100839.71;3746173;77;99112;-82
2022/05/15 16:38:24;;;;;;;8.03;2.47;;;;;;;23.08;34.72;100844.93;3755607;76;33522;-83
2022/05/15 16:43:26;;;;;;;4.97;1.60;;;;;;;22.96;35.50;100838.72;3783007;77;98720;-83
2022/05/15 16:48:27;;;;;;;4.62;1.80;;;;;;;22.64;35.56;100845.38;3804776;77;98660;-84
2022/05/15 16:53:28;;;;;;;6.85;1.70;;;;;;;22.33;36.06;100846.30;3795121;76;98794;-83
2022/05/15 16:58:29;;;;;;;4.92;1.67;;;;;;;21.99;36.18;100848.94;3801619;77;99100;-82
2022/05/15 17:03:31;;;;;;;5.03;1.80;;;;;;;21.78;36.57;100847.53;3790360;76;99284;-82
2022/05/15 17:08:33;;;;;;;8.38;1.72;;;;;;;21.57;37.32;100848.08;3767683;77;32693;-82
2022/05/15 17:13:35;;;;;;;6.70;2.08;;;;;;;21.32;37.22;100846.56;3760792;77;98655;-82
2022/05/15 17:18:37;;;;;;;5.47;1.80;;;;;;;21.12;37.53;100842.28;3758808;77;98714;-82
2022/05/15 17:23:38;;;;;;;12.88;2.30;;;;;;;20.97;37.47;100846.05;3753037;76;98846;-81
2022/05/15 17:34:15;;;;;;;5.62;2.12;;;;;;;20.60;37.89;100851.33;3760868;76;99142;-82
2022/05/15 17:39:18;;;;;;;5.03;1.80;;;;;;;20.37;38.18;100852.23;3762124;76;99003;-82
2022/05/15 17:44:19;;;;;;;4.65;1.52;;;;;;;20.22;38.66;100857.95;3742007;78;98654;-82
2022/05/15 17:49:20;;;;;;;7.37;1.90;;;;;;;20.11;39.45;100864.37;3770502;77;98666;-82
2022/05/15 17:54:21;;;;;;;3.35;1.37;;;;;;;19.70;40.41;100849.22;3770179;77;98635;-81
2022/05/15 17:59:22;;;;;;;7.78;1.90;;;;;;;19.70;40.41;100849.22;3771668;77;99180;-81
2022/05/15 18:04:24;;;;;;;6.83;1.80;;;;;;;19.65;40.62;100869.27;3750161;77;98891;-81
2022/05/15 18:09:25;;;;;;;5.50;2.50;;;;;;;19.45;40.47;100876.22;3694558;78;99169;-82
2022/05/15 18:14:26;;;;;;;6.15;1.92;;;;;;;19.30;41.18;100882.48;3718393;77;98462;-82
2022/05/15 18:19:28;;;;;;;4.70;1.60;;;;;;;19.15;41.08;100883.89;3727332;78;99030;-81
2022/05/15 18:24:29;;;;;;;5.53;1.95;;;;;;;18.96;41.35;100882.59;3720368;77;99064;-82
2022/05/15 18:29:31;;;;;;;6.53;1.72;;;;;;;18.79;41.57;100887.05;3737298;77;98919;-81
2022/05/15 18:34:32;;;;;;;7.25;1.90;;;;;;;18.64;42.25;100895.46;3727865;78;98776;-81
2022/05/15 18:39:33;;;;;;;6.28;1.95;;;;;;;18.44;42.44;100900.11;3740533;77;98821;-82
2022/05/15 18:44:36;;;;;;;6.25;2.10;;;;;;;18.20;43.28;100912.34;3747574;77;98607;-81
2022/05/15 18:54:54;;;;;;;7.28;2.80;;;;;;;17.86;43.15;100902.58;3745864;77;98540;-82
2022/05/15 18:54:56;;;;;;;5.33;2.08;;;;;;;17.65;43.68;100917.34;3739606;77;98441;-82
2022/05/15 18:59:58;;;;;;;7.22;2.00;;;;;;;17.49;44.11;100929.00;3724540;77;98932;-81
2022/05/15 19:05:00;;;;;;;8.48;2.10;;;;;;;17.28;44.44;100931.93;3761178;77;98871;-82
2022/05/15 19:10:01;;;;;;;6.60;1.87;;;;;;;17.00;44.85;100927.98;3785831;77;99250;-83
2022/05/15 19:15:03;;;;;;;7.55;2.12;;;;;;;16.65;45.37;100939.33;3806424;76;99219;-82
2022/05/15 19:20:08;;;;;;;7.80;2.12;;;;;;;16.37;46.22;100942.81;3693037;78;32360;-82
2022/05/15 19:25:11;;;;;;;7.83;2.23;;;;;;;16.11;46.61;100954.41;3683091;78;98773;-83
2022/05/15 19:30:14;;;;;;;9.00;2.47;;;;;;;15.89;47.26;100948.71;3689427;78;99067;-83
2022/05/15 19:35:15;;;;;;;6.28;2.00;;;;;;;15.66;47.83;100954.72;3655485;80;98846;-84
2022/05/15 19:40:16;;;;;;;7.83;2.35;;;;;;;15.35;47.86;100953.33;3688733;78;98864;-83
2022/05/15 19:45:18;;;;;;;11.33;2.87;;;;;;;15.08;48.49;100950.70;3687614;78;98887;-84
2022/05/15 19:50:20;;;;;;;8.63;3.10;;;;;;;14.88;48.92;100960.59;3779935;76;32541;-85
2022/05/15 19:55:21;;;;;;;7.50;2.83;;;;;;;14.74;49.02;100969.66;3774621;76;99473;-84
2022/05/15 20:00:24;;;;;;;10.72;2.80;;;;;;;14.58;49.33;100966.45;3783974;75;99188;-84
2022/05/15 20:16:07;;;;;;;8.33;2.22;;;;;;;14.10;50.70;100991.88;3781420;76;99377;-83
2022/05/15 20:21:10;;;;;;;7.92;2.92;;;;;;;13.93;51.06;100996.15;3772879;76;98553;-83
2022/05/15 20:26:15;;;;;;;9.05;2.17;;;;;;;13.70;51.79;101002.52;3811711;76;32432;-82
2022/05/15 20:31:21;;;;;;;5.37;1.72;;;;;;;13.48;52.36;101003.52;3777166;75;99120;-81
2022/05/15 20:36:23;;;;;;;7.67;1.92;;;;;;;13.35;52.77;101009.12;3836392;74;98886;-83
2022/05/15 20:41:24;;;;;;;9.13;1.90;;;;;;;13.25;53.48;100999.36;3800590;75;99256;-82
2022/05/15 20:46:25;;;;;;;6.20;1.93;;;;;;;13.13;54.34;101004.56;3819999;76;98875;-84
2022/05/15 20:51:27;;;;;;;6.97;2.02;;;;;;;13.01;54.76;101002.08;3780002;75;99034;-83
2022/05/15 20:56:28;;;;;;;4.92;1.98;;;;;;;12.90;55.08;100998.95;3796886;76;32448;-83
2022/05/15 21:01:30;;;;;;;7.85;2.08;;;;;;;12.81;55.26;101003.41;3752052;77;99122;-82
2022/05/15 21:06:31;;;;;;;9.95;1.98;;;;;;;12.74;56.04;101007.47;3783545;76;98692;-83
2022/05/15 21:11:32;;;;;;;4.37;1.70;;;;;;;12.60;55.83;101012.04;3753719;78;99028;-83
2022/05/15 21:16:33;;;;;;;4.03;1.73;;;;;;;12.49;56.33;101003.61;3781682;76;98904;-83
2022/05/15 21:21:35;;;;;;;8.17;2.57;;;;;;;12.42;56.26;101006.89;3770230;76;99046;-83
2022/05/15 21:26:36;;;;;;;12.13;2.10;;;;;;;12.35;56.61;101001.27;3770416;76;26387;-83
2022/05/15 21:31:37;;;;;;;5.70;1.87;;;;;;;12.28;57.03;101001.17;3736999;77;99093;-83
2022/05/15 21:36:38;;;;;;;7.70;1.80;;;;;;;12.18;57.43;101009.53;3771008;76;99432;-83
2022/05/15 21:46:59;;;;;;;4.95;1.50;;;;;;;12.03;57.60;101001.41;3779788;76;98801;-83
2022/05/15 21:52:01;;;;;;;8.70;2.97;;;;;;;11.90;58.18;100991.77;3771819;77;98774;-83
2022/05/15 21:57:03;;;;;;;7.25;2.62;;;;;;;11.83;58.66;100999.95;3787423;77;99358;-82
2022/05/15 22:02:05;;;;;;;8.15;1.77;;;;;;;11.72;58.89;100998.39;3780975;77;98885;-82
2022/05/15 22:07:07;;;;;;;8.05;2.12;;;;;;;11.52;59.17;100980.91;3778540;77;99070;-82
2022/05/15 22:12:08;;;;;;;9.47;2.13;;;;;;;11.52;59.97;100990.56;3773536;76;99094;-85
2022/05/15 22:17:10;;;;;;;6.62;2.15;;;;;;;11.31;60.64;100991.58;3807205;76;98838;-87
2022/05/15 22:22:11;;;;;;;8.63;2.33;;;;;;;11.31;60.64;100991.58;3798426;76;99128;-86
2022/05/15 22:27:12;;;;;;;7.30;2.20;;;;;;;11.23;60.96;100998.92;3802679;76;98754;-86
2022/05/15 22:32:15;;;;;;;9.63;2.50;;;;;;;11.14;61.03;100998.39;3802415;76;98903;-86
2022/05/15 22:37:21;;;;;;;7.35;1.77;;;;;;;11.06;61.40;101000.02;3814834;76;98716;-87
2022/05/15 22:42:22;;;;;;;6.50;2.33;;;;;;;10.93;62.18;100997.19;3792012;76;98745;-86
2022/05/15 22:47:23;;;;;;;6.47;2.30;;;;;;;10.81;62.41;100991.86;3828680;75;99370;-86
2022/05/15 22:52:25;;;;;;;7.57;2.40;;;;;;;10.67;62.81;100992.38;3780362;76;98804;-86
2022/05/15 22:57:26;;;;;;;8.73;2.40;;;;;;;10.52;63.01;100993.85;3787601;76;99097;-86
2022/05/15 23:02:27;;;;;;;10.70;2.10;;;;;;;10.39;63.42;100986.31;3783595;76;98709;-86
2022/05/15 23:07:35;;;;;;;6.97;2.17;;;;;;;10.32;63.68;100990.88;3746689;78;98806;-86
2022/05/15 23:12:36;;;;;;;9.08;2.35;;;;;;;10.22;64.32;100988.12;3734087;76;98737;-86
2022/05/15 23:17:38;;;;;;;10.23;2.95;;;;;;;10.13;64.58;100993.59;3798581;76;97787;-86
2022/05/15 23:22:40;;;;;;;7.40;2.40;;;;;;;10.03;65.01;101005.15;3777752;76;98810;-85
2022/05/15 23:27:41;;;;;;;8.55;2.47;;;;;;;9.94;65.31;101000.41;3791866;76;98681;-86
2022/05/15 23:32:42;;;;;;;5.80;2.20;;;;;;;9.87;65.53;100992.80;3764681;76;102246;-85
2022/05/15 23:37:44;;;;;;;7.40;2.73;;;;;;;9.78;66.05;100998.27;3773001;77;25826;-87
2022/05/15 23:42:45;;;;;;;7.43;2.37;;;;;;;9.70;66.02;101003.41;3744293;76;98577;-85
2022/05/15 23:47:48;;;;;;;9.58;2.55;;;;;;;9.65;66.44;101005.05;3760668;76;98510;-86
2022/05/15 23:52:49;;;;;;;8.93;2.42;;;;;;;9.57;66.80;101006.83;3724888;78;98517;-86
2022/05/15 23:57:52;;;;;;;9.60;2.47;;;;;;;9.47;66.83;101009.30;3776682;76;98784;-86
